CheckWX is a tool to help pilots better visualize weather data.  It is not intended as a substitute for an official pre-flight weather briefing.

07:50:32 UTC

KGEG METAR
Spokane International Airport
Spokane, Washington, USA
Current

25 mins ago

KGEG 120726Z 13005KT 1/2SM R21/P6000FT -RA BR OVC003 01/00 A2987 RMK AO2 SFC VIS 1 1/2 RAB2257 T00110000
Observed
Dec-12 @ 07:26 UTC
Wind
  • 130° at 5 KTS
Visibility
1/2 SM
Flight Rules
LIFR
Conditions
Light Rain, Mist
Cloud Levels
  • Overcast at 300' AGL
Temperature
C / 34°F
Dewpoint
C / 32°F
Humidity
93%
Altimeter
29.87" Hg
Pressure
1011.52 hPa
Previous

58 mins ago

KGEG 120653Z 12003KT 1/4SM R21/4000VP6000FT UP BR OVC002 00/M01 A2988 RMK AO2 SFC VIS 1 1/4 SLP140 FZRAB27E38 P0000 I1001 T00001006
Observed
Dec-12 @ 06:53 UTC
Wind
  • 120° at 3 KTS
Visibility
1/4 SM
Flight Rules
LIFR
Conditions
Mist, Unknown precipitation
Cloud Levels
  • Overcast at 200' AGL
Temperature
C / 32°F
Dewpoint
-1°C / 30°F
Humidity
93%
Altimeter
29.88" Hg
Pressure
1011.82 hPa
Current Rain
0.01"
Previous

58 mins ago

KGEG 120653Z COR 12003KT 1/4SM R21/4000VP6000FT BR OVC002 00/M01 A2988 RMK AO2 SFC VIS 1 1/4 SLP140 FZRAB27E38 P0000 I1001 T00001006
Observed
Dec-12 @ 06:53 UTC
Wind
  • 120° at 3 KTS
Visibility
1/4 SM
Flight Rules
LIFR
Conditions
Mist
Cloud Levels
  • Overcast at 200' AGL
Temperature
C / 32°F
Dewpoint
-1°C / 30°F
Humidity
93%
Altimeter
29.88" Hg
Pressure
1011.82 hPa
Current Rain
0.01"